createdAt,value
2018-06-08T00:02:10.883Z,124.90
2018-06-08T00:04:42.717Z,108.20
2018-06-08T00:07:12.406Z,106.37
2018-06-08T00:09:42.735Z,103.83
2018-06-08T00:12:12.282Z,105.20
2018-06-08T00:14:41.651Z,95.37
2018-06-08T00:17:11.259Z,93.00
2018-06-08T00:19:40.676Z,86.70
2018-06-08T00:22:10.165Z,88.77
2018-06-08T00:24:39.778Z,102.07
2018-06-08T00:27:10.109Z,99.47
2018-06-08T00:29:40.314Z,125.65
2018-06-08T00:32:09.980Z,154.30
2018-06-08T00:34:39.575Z,143.53
2018-06-08T00:37:09.908Z,162.00
2018-06-08T00:39:39.396Z,147.50
2018-06-08T00:42:09.211Z,159.63
2018-06-08T00:44:38.773Z,141.00
2018-06-08T00:47:10.692Z,151.13
2018-06-08T00:49:40.179Z,161.10
2018-06-08T00:52:10.426Z,177.70
2018-06-08T00:54:39.972Z,147.57
2018-06-08T00:57:09.396Z,164.40
2018-06-08T00:59:39.033Z,162.53
2018-06-08T01:02:08.289Z,174.97
2018-06-08T01:04:37.577Z,183.40
2018-06-08T01:07:07.575Z,203.07
2018-06-08T01:09:36.575Z,198.73
2018-06-08T01:12:06.893Z,165.37
2018-06-08T01:14:45.203Z,135.50
2018-06-08T01:17:20.165Z,138.83
2018-06-08T01:19:51.447Z,147.57
2018-06-08T01:22:21.205Z,147.20
2018-06-08T01:24:50.747Z,141.93
2018-06-08T01:27:21.323Z,148.87
2018-06-08T01:29:50.957Z,131.50
2018-06-08T01:32:20.481Z,143.03
2018-06-08T01:34:50.248Z,137.50
2018-06-08T01:37:19.870Z,133.07
2018-06-08T01:39:49.495Z,122.57
2018-06-08T01:42:19.647Z,123.23
2018-06-08T01:44:49.119Z,123.83
2018-06-08T01:47:18.669Z,117.57
2018-06-08T01:49:48.347Z,112.40
2018-06-08T01:52:18.419Z,115.33
2018-06-08T01:54:48.152Z,119.70
2018-06-08T01:57:18.593Z,128.90
2018-06-08T01:59:48.484Z,114.00
2018-06-08T02:02:18.048Z,109.17
2018-06-08T02:04:47.348Z,119.33
2018-06-08T02:07:16.716Z,104.37
2018-06-08T02:09:46.236Z,102.23
2018-06-08T02:12:16.376Z,97.87
2018-06-08T02:14:45.560Z,108.73
2018-06-08T02:17:15.128Z,107.07
2018-06-08T02:19:44.542Z,116.50
2018-06-08T02:22:13.947Z,112.97
2018-06-08T02:24:44.144Z,119.17
2018-06-08T02:27:13.814Z,110.00
2018-06-08T02:29:43.258Z,120.50
2018-06-08T02:32:13.471Z,125.85
2018-06-08T02:34:42.990Z,117.83
2018-06-08T02:37:13.877Z,125.80
2018-06-08T02:39:43.053Z,98.53
2018-06-08T02:42:13.609Z,121.55
2018-06-08T02:44:43.322Z,112.67
2018-06-08T02:47:13.658Z,118.77
2018-06-08T02:49:43.040Z,117.80
2018-06-08T02:52:12.639Z,122.25
2018-06-08T02:54:42.663Z,130.33
2018-06-08T02:57:12.028Z,130.33
2018-06-08T02:59:41.572Z,145.50
2018-06-08T03:02:11.211Z,130.70
2018-06-08T03:04:40.852Z,117.50
2018-06-08T03:07:10.463Z,116.07
2018-06-08T03:09:39.960Z,113.27
2018-06-08T03:12:09.340Z,104.87
2018-06-08T03:14:38.888Z,103.13
2018-06-08T03:17:08.955Z,117.73
2018-06-08T03:19:38.848Z,124.40
2018-06-08T03:22:08.328Z,109.83
2018-06-08T03:24:37.537Z,115.53
2018-06-08T03:27:07.005Z,134.20
2018-06-08T03:29:37.170Z,134.50
2018-06-08T03:32:06.603Z,130.87
2018-06-08T03:34:36.195Z,137.00
2018-06-08T03:37:05.783Z,122.87
2018-06-08T03:39:35.959Z,126.97
2018-06-08T03:42:06.968Z,128.33
2018-06-08T03:44:36.710Z,128.80
2018-06-08T03:47:06.268Z,128.77
2018-06-08T03:49:35.922Z,116.10
2018-06-08T03:52:06.435Z,114.60
2018-06-08T03:54:35.815Z,123.30
2018-06-08T03:57:05.801Z,122.87
2018-06-08T03:59:35.592Z,138.13
2018-06-08T04:02:05.275Z,122.27
2018-06-08T04:04:34.924Z,112.43
2018-06-08T04:07:04.697Z,124.77
2018-06-08T04:09:34.304Z,126.33
2018-06-08T04:12:04.328Z,124.73
2018-06-08T04:14:33.765Z,120.83
2018-06-08T04:17:03.394Z,138.83
2018-06-08T04:19:32.971Z,141.17
2018-06-08T04:22:02.377Z,124.83
2018-06-08T04:24:32.058Z,124.90
2018-06-08T04:27:02.355Z,119.10
2018-06-08T04:29:32.596Z,126.90
2018-06-08T04:32:01.928Z,116.53
2018-06-08T04:34:31.698Z,115.67
2018-06-08T04:37:01.367Z,129.50
2018-06-08T04:39:31.196Z,118.17
2018-06-08T04:42:00.818Z,119.40
2018-06-08T04:44:32.502Z,105.43
2018-06-08T04:47:02.753Z,110.17
2018-06-08T04:49:31.815Z,110.40
2018-06-08T04:52:01.883Z,109.50
2018-06-08T04:54:32.514Z,103.73
2018-06-08T04:57:03.754Z,90.47
2018-06-08T04:59:33.277Z,99.17
2018-06-08T05:02:02.716Z,101.80
2018-06-08T05:04:32.302Z,107.33
2018-06-08T05:07:01.765Z,102.63
2018-06-08T05:09:32.118Z,99.90
2018-06-08T05:12:03.388Z,121.23
2018-06-08T05:14:32.970Z,102.40
2018-06-08T05:17:03.032Z,113.40
2018-06-08T05:19:33.674Z,97.67
2018-06-08T05:22:03.111Z,110.10
2018-06-08T05:24:36.053Z,93.77
2018-06-08T05:27:06.194Z,103.63
2018-06-08T05:29:36.064Z,116.33
2018-06-08T05:32:06.954Z,106.73
2018-06-08T05:34:36.964Z,98.77
2018-06-08T05:37:07.868Z,107.10
2018-06-08T05:39:38.311Z,117.87
2018-06-08T05:42:07.927Z,86.40
2018-06-08T05:44:37.585Z,95.15
2018-06-08T05:47:07.345Z,86.65
2018-06-08T05:49:36.789Z,84.95
2018-06-08T05:52:07.585Z,79.10
2018-06-08T05:54:38.610Z,90.23
2018-06-08T05:57:09.059Z,75.60
2018-06-08T05:59:39.396Z,71.53
2018-06-08T06:02:08.993Z,50.23
2018-06-08T06:04:38.523Z,57.80
2018-06-08T06:07:08.397Z,60.83
2018-06-08T06:09:39.473Z,68.85
2018-06-08T06:12:09.805Z,66.40
2018-06-08T06:14:40.072Z,54.60
2018-06-08T06:17:13.655Z,52.97
2018-06-08T06:19:45.144Z,54.97
2018-06-08T06:22:14.955Z,56.20
2018-06-08T06:24:48.111Z,57.50
2018-06-08T06:27:20.558Z,59.50
2018-06-08T06:29:50.299Z,54.37
2018-06-08T06:32:21.074Z,56.80
2018-06-08T06:34:51.838Z,51.70
2018-06-08T06:37:21.518Z,58.70
2018-06-08T06:39:51.738Z,50.10
2018-06-08T06:42:21.308Z,54.17
2018-06-08T06:44:52.636Z,47.27
2018-06-08T06:47:22.880Z,52.67
2018-06-08T06:49:52.527Z,48.33
2018-06-08T06:52:22.276Z,49.13
2018-06-08T06:54:51.764Z,50.10
2018-06-08T06:57:21.738Z,52.97
2018-06-08T06:59:52.164Z,59.10
2018-06-08T07:02:21.808Z,63.47
2018-06-08T07:04:51.748Z,54.80
2018-06-08T07:07:20.887Z,52.30
2018-06-08T07:09:50.239Z,58.73
2018-06-08T07:12:21.891Z,61.47
2018-06-08T07:14:51.827Z,53.70
2018-06-08T07:17:21.095Z,52.47
2018-06-08T07:19:50.521Z,48.97
2018-06-08T07:22:22.012Z,40.25
2018-06-08T07:24:51.728Z,49.70
2018-06-08T07:27:21.464Z,41.27
2018-06-08T07:29:51.077Z,46.07
2018-06-08T07:32:20.827Z,48.57
2018-06-08T07:34:50.313Z,46.80
2018-06-08T07:37:21.343Z,41.20
2018-06-08T07:39:54.658Z,36.27
2018-06-08T07:42:25.353Z,42.20
2018-06-08T07:44:54.561Z,43.73
2018-06-08T07:47:25.601Z,41.03
2018-06-08T07:49:55.842Z,37.73
2018-06-08T07:52:25.633Z,39.97
2018-06-08T07:54:55.202Z,37.53
2018-06-08T08:00:59.070Z,37.07
2018-06-08T08:03:28.742Z,34.23
2018-06-08T08:05:58.516Z,37.63
2018-06-08T08:08:30.280Z,43.10
2018-06-08T08:11:00.333Z,34.87
2018-06-08T08:13:30.362Z,37.30
2018-06-08T08:16:00.588Z,34.40
2018-06-08T08:18:30.480Z,36.07
2018-06-08T08:21:00.753Z,40.00
2018-06-08T08:23:30.480Z,40.00
2018-06-08T08:26:00.564Z,37.73
2018-06-08T08:28:30.680Z,36.27
2018-06-08T08:31:01.032Z,39.37
2018-06-08T08:33:31.301Z,39.33
2018-06-08T08:36:01.136Z,43.40
2018-06-08T08:38:31.460Z,42.37
2018-06-08T08:41:01.605Z,42.77
2018-06-08T08:43:33.938Z,45.47
2018-06-08T08:46:03.593Z,39.87
2018-06-08T08:48:33.252Z,42.47
2018-06-08T08:51:02.848Z,38.57
2018-06-08T08:53:32.528Z,49.93
2018-06-08T08:56:02.162Z,42.87
2018-06-08T08:58:31.970Z,42.07
2018-06-08T09:01:01.522Z,45.20
2018-06-08T09:03:31.582Z,40.40
2018-06-08T09:06:01.872Z,44.70
2018-06-08T09:08:31.603Z,43.23
2018-06-08T09:11:01.680Z,43.83
2018-06-08T09:13:31.478Z,39.53
2018-06-08T09:16:02.342Z,43.43
2018-06-08T09:18:33.073Z,40.67
2018-06-08T09:21:02.950Z,42.27
2018-06-08T09:23:32.727Z,41.70
2018-06-08T09:26:02.315Z,39.87
2018-06-08T09:28:33.294Z,41.10
2018-06-08T09:31:03.469Z,35.83
2018-06-08T09:33:33.359Z,42.27
2018-06-08T09:36:02.789Z,38.80
2018-06-08T09:38:32.677Z,37.50
2018-06-08T09:41:02.824Z,34.77
2018-06-08T09:43:33.803Z,41.03
2018-06-08T09:46:04.374Z,39.03
2018-06-08T09:48:34.425Z,41.20
2018-06-08T09:51:04.039Z,35.33
2018-06-08T09:53:34.506Z,39.53
2018-06-08T09:56:04.897Z,36.93
2018-06-08T09:58:34.678Z,36.23
2018-06-08T10:01:04.201Z,37.43
2018-06-08T10:03:35.586Z,36.90
2018-06-08T10:06:06.068Z,37.77
2018-06-08T10:08:36.177Z,40.60
2018-06-08T10:11:05.777Z,34.93
2018-06-08T10:13:35.453Z,37.93
2018-06-08T10:16:05.589Z,39.07
2018-06-08T10:18:35.132Z,38.30
2018-06-08T10:21:04.803Z,38.77
2018-06-08T10:23:34.615Z,42.60
2018-06-08T10:26:04.149Z,41.30
2018-06-08T10:28:33.566Z,41.27
2018-06-08T10:31:03.328Z,36.70
2018-06-08T10:33:33.617Z,36.43
2018-06-08T10:36:04.146Z,38.23
2018-06-08T10:38:34.884Z,40.80
2018-06-08T10:41:04.969Z,39.03
2018-06-08T10:43:34.552Z,34.87
2018-06-08T10:46:04.074Z,43.63
2018-06-08T10:48:34.704Z,33.67
2018-06-08T10:51:05.052Z,36.87
2018-06-08T10:53:34.854Z,43.43
2018-06-08T10:56:04.449Z,38.20
2018-06-08T10:58:34.261Z,38.97
2018-06-08T11:01:04.883Z,39.63
2018-06-08T11:03:35.525Z,38.40
2018-06-08T11:06:05.745Z,39.27
2018-06-08T11:08:35.461Z,38.90
2018-06-08T11:11:04.866Z,38.90
2018-06-08T11:14:38.171Z,36.10
2018-06-08T11:17:09.101Z,40.83
2018-06-08T11:19:38.887Z,38.97
2018-06-08T11:22:08.493Z,42.40
2018-06-08T11:24:38.550Z,43.60
2018-06-08T11:27:08.153Z,41.07
2018-06-08T11:29:38.690Z,41.17
2018-06-08T11:32:09.362Z,44.67
2018-06-08T11:34:39.601Z,41.53
2018-06-08T11:37:09.347Z,42.77
2018-06-08T11:39:39.909Z,43.53
2018-06-08T11:42:09.825Z,42.77
2018-06-08T11:44:39.328Z,40.13
2018-06-08T11:47:10.883Z,53.53
2018-06-08T11:49:40.625Z,42.57
2018-06-08T11:52:10.651Z,44.73
2018-06-08T11:54:44.354Z,45.90
2018-06-08T11:57:16.131Z,42.37
2018-06-08T11:59:47.059Z,39.93
2018-06-08T12:02:17.275Z,42.47
2018-06-08T12:04:47.717Z,43.73
2018-06-08T12:07:18.097Z,42.33
2018-06-08T12:09:47.951Z,37.83
2018-06-08T12:12:17.693Z,37.87
2018-06-08T12:14:48.584Z,43.83
2018-06-08T12:17:18.299Z,43.17
2018-06-08T12:19:49.638Z,38.10
2018-06-08T12:22:19.343Z,33.87
2018-06-08T12:24:49.191Z,36.23
2018-06-08T12:27:20.035Z,40.37
2018-06-08T12:29:50.342Z,41.77
2018-06-08T12:32:20.006Z,38.13
2018-06-08T12:34:50.386Z,37.83
2018-06-08T12:37:19.638Z,37.80
2018-06-08T12:39:49.233Z,35.63
2018-06-08T12:42:42.116Z,41.53
2018-06-08T12:45:12.557Z,40.67
2018-06-08T12:47:42.320Z,35.13
2018-06-08T12:50:12.791Z,34.13
2018-06-08T12:52:42.903Z,39.27
2018-06-08T12:55:12.461Z,36.43
2018-06-08T12:57:42.232Z,34.13
2018-06-08T13:00:12.414Z,35.87
2018-06-08T13:02:42.429Z,40.00
2018-06-08T13:05:13.122Z,38.13
2018-06-08T13:07:43.417Z,33.27
2018-06-08T13:10:13.106Z,32.67
2018-06-08T13:12:42.860Z,33.73
2018-06-08T13:15:12.362Z,37.80
2018-06-08T13:17:41.855Z,35.87
2018-06-08T13:20:11.312Z,38.67
2018-06-08T13:22:40.966Z,31.97
2018-06-08T13:25:10.540Z,34.93
2018-06-08T13:27:41.180Z,35.10
2018-06-08T13:30:10.940Z,39.33
2018-06-08T13:32:40.371Z,37.80
2018-06-08T13:35:10.760Z,39.03
2018-06-08T13:37:40.367Z,34.17
2018-06-08T13:40:10.142Z,41.37
2018-06-08T13:42:40.978Z,39.37
2018-06-08T13:45:10.748Z,36.57
2018-06-08T13:47:40.541Z,36.13
2018-06-08T13:50:11.495Z,38.57
2018-06-08T13:52:42.353Z,36.93
2018-06-08T13:55:12.097Z,37.17
2018-06-08T13:57:42.409Z,34.43
2018-06-08T14:00:11.963Z,36.43
2018-06-08T14:02:41.622Z,37.57
2018-06-08T14:05:13.552Z,38.87
2018-06-08T14:07:44.071Z,36.03
2018-06-08T14:10:14.029Z,36.60
2018-06-08T14:12:43.874Z,32.80
2018-06-08T14:15:14.472Z,33.90
2018-06-08T14:21:18.825Z,34.90
2018-06-08T14:23:48.776Z,35.15
2018-06-08T14:26:18.459Z,40.00
2018-06-08T14:28:48.373Z,40.73
2018-06-08T14:31:18.179Z,36.43
2018-06-08T14:33:48.081Z,37.77
2018-06-08T14:36:17.755Z,39.57
2018-06-08T14:38:48.067Z,34.30
2018-06-08T14:41:17.849Z,33.20
2018-06-08T14:43:48.535Z,35.93
2018-06-08T14:46:18.938Z,37.57
2018-06-08T14:48:49.612Z,34.07
2018-06-08T14:51:19.400Z,31.03
2018-06-08T14:53:50.213Z,28.83
2018-06-08T14:56:20.700Z,37.10
2018-06-08T14:58:50.422Z,29.07
2018-06-08T15:01:19.947Z,27.87
2018-06-08T15:03:50.278Z,31.23
2018-06-08T15:06:20.577Z,32.20
2018-06-08T15:08:50.320Z,27.93
2018-06-08T15:11:20.201Z,25.97
2018-06-08T15:13:50.638Z,26.07
2018-06-08T15:16:21.080Z,25.80
2018-06-08T15:18:51.253Z,25.00
2018-06-08T15:21:20.804Z,23.40
2018-06-08T15:23:50.631Z,24.33
2018-06-08T15:26:20.052Z,27.50
2018-06-08T15:28:49.544Z,23.27
2018-06-08T15:31:19.236Z,23.87
2018-06-08T15:33:48.840Z,25.23
2018-06-08T15:36:18.922Z,24.77
2018-06-08T15:38:48.495Z,27.00
2018-06-08T15:41:18.104Z,24.87
2018-06-08T15:43:47.399Z,27.37
2018-06-08T15:46:16.759Z,28.67
2018-06-08T15:48:46.224Z,24.70
2018-06-08T15:51:15.477Z,27.73
2018-06-08T15:53:44.909Z,33.23
2018-06-08T15:56:14.803Z,25.10
2018-06-08T15:58:44.504Z,23.20
2018-06-08T16:01:13.915Z,29.47
2018-06-08T16:03:43.220Z,24.60
2018-06-08T16:06:13.454Z,25.70
2018-06-08T16:08:42.966Z,23.80
2018-06-08T16:11:12.858Z,23.57
2018-06-08T16:13:42.617Z,25.83
2018-06-08T16:16:12.423Z,21.00
2018-06-08T16:18:42.346Z,26.47
2018-06-08T16:21:12.208Z,25.13
2018-06-08T16:23:41.808Z,27.43
2018-06-08T16:26:11.267Z,24.83
2018-06-08T16:28:40.761Z,25.10
2018-06-08T16:31:11.274Z,21.77
2018-06-08T16:33:41.043Z,24.80
2018-06-08T16:36:10.715Z,24.13
2018-06-08T16:38:44.318Z,24.37
2018-06-08T16:41:16.426Z,22.43
2018-06-08T16:43:52.250Z,24.30
2018-06-08T16:46:22.068Z,25.97
2018-06-08T16:48:52.574Z,23.70
2018-06-08T16:51:23.461Z,23.63
2018-06-08T16:53:54.648Z,30.93
2018-06-08T16:56:29.173Z,26.77
2018-06-08T16:58:59.194Z,24.57
2018-06-08T17:01:30.152Z,25.00
2018-06-08T17:04:00.326Z,24.90
2018-06-08T17:06:29.704Z,24.63
2018-06-08T17:09:00.830Z,25.57
2018-06-08T17:11:30.881Z,22.33
2018-06-08T17:14:01.378Z,27.53
2018-06-08T17:16:30.696Z,28.37
2018-06-08T17:19:00.370Z,24.97
2018-06-08T17:21:30.157Z,23.57
2018-06-08T17:24:00.560Z,24.60
2018-06-08T17:26:30.516Z,29.00
2018-06-08T17:29:01.853Z,29.80
2018-06-08T17:31:31.831Z,23.87
2018-06-08T17:34:02.214Z,22.57
2018-06-08T17:36:32.686Z,24.10
2018-06-08T17:39:02.590Z,28.03
2018-06-08T17:41:32.527Z,27.33
2018-06-08T17:44:02.020Z,27.03
2018-06-08T17:46:32.399Z,24.03
2018-06-08T17:49:02.277Z,24.93
2018-06-08T17:51:32.040Z,24.97
2018-06-08T17:54:01.409Z,28.07
2018-06-08T17:56:30.968Z,28.10
2018-06-08T17:59:00.537Z,27.30
2018-06-08T18:01:30.259Z,29.23
2018-06-08T18:04:01.183Z,29.23
2018-06-08T18:06:31.295Z,27.47
2018-06-08T18:09:01.743Z,28.27
2018-06-08T18:11:32.589Z,26.70
2018-06-08T18:14:05.964Z,24.63
2018-06-08T18:16:36.151Z,29.57
2018-06-08T18:19:05.892Z,22.27
2018-06-08T18:21:35.700Z,30.40
2018-06-08T18:24:07.997Z,28.20
2018-06-08T18:26:37.752Z,30.53
2018-06-08T18:29:08.306Z,24.70
2018-06-08T18:31:37.962Z,29.23
2018-06-08T18:34:08.724Z,30.53
2018-06-08T18:36:41.971Z,30.03
2018-06-08T18:39:11.696Z,30.47
2018-06-08T18:41:43.057Z,26.47
2018-06-08T18:44:13.687Z,27.83
2018-06-08T18:46:43.784Z,30.27
2018-06-08T18:49:13.915Z,30.07
2018-06-08T18:51:43.398Z,27.40
2018-06-08T18:54:14.602Z,24.63
2018-06-08T18:56:44.944Z,26.87
2018-06-08T18:59:16.367Z,28.80
2018-06-08T19:01:46.750Z,28.90
2018-06-08T19:04:18.313Z,21.60
2018-06-08T19:06:48.548Z,27.40
2018-06-08T19:09:18.417Z,25.63
2018-06-08T19:11:48.700Z,27.17
2018-06-08T19:14:19.067Z,24.90
2018-06-08T19:16:49.215Z,31.63
2018-06-08T19:19:19.551Z,28.63
2018-06-08T19:21:49.263Z,29.33
2018-06-08T19:24:18.790Z,30.07
2018-06-08T19:26:48.832Z,27.27
2018-06-08T19:29:19.149Z,27.20
2018-06-08T19:31:48.825Z,34.60
2018-06-08T19:34:18.803Z,28.65
2018-06-08T19:36:48.617Z,28.40
2018-06-08T19:39:18.696Z,29.37
2018-06-08T19:41:48.794Z,29.93
2018-06-08T19:44:18.527Z,27.00
2018-06-08T19:46:48.099Z,28.53
2018-06-08T19:49:19.679Z,26.90
2018-06-08T19:51:49.271Z,26.07
2018-06-08T19:54:18.918Z,25.47
2018-06-08T19:56:48.574Z,27.70
2018-06-08T19:59:18.309Z,28.85
2018-06-08T20:01:49.006Z,28.50
2018-06-08T20:04:18.564Z,29.13
2018-06-08T20:06:48.165Z,31.10
2018-06-08T20:09:18.483Z,29.57
2018-06-08T20:11:48.277Z,31.27
2018-06-08T20:14:18.030Z,29.37
2018-06-08T20:16:50.271Z,29.83
2018-06-08T20:19:20.792Z,29.83
2018-06-08T20:21:50.661Z,32.10
2018-06-08T20:24:20.346Z,31.80
2018-06-08T20:26:51.140Z,30.30
2018-06-08T20:29:20.610Z,31.80
2018-06-08T20:31:50.785Z,29.33
2018-06-08T20:34:20.321Z,29.20
2018-06-08T20:36:50.007Z,29.10
2018-06-08T20:39:19.426Z,32.87
2018-06-08T20:41:48.936Z,32.23
2018-06-08T20:44:18.360Z,29.50
2018-06-08T20:46:48.126Z,28.60
2018-06-08T20:49:17.455Z,32.50
2018-06-08T20:51:47.471Z,33.20
2018-06-08T20:54:17.148Z,31.87
2018-06-08T20:56:50.684Z,25.63
2018-06-08T20:59:19.961Z,30.97
2018-06-08T21:01:49.508Z,24.97
2018-06-08T21:04:19.166Z,30.23
2018-06-08T21:06:48.834Z,35.27
2018-06-08T21:09:22.220Z,26.33
2018-06-08T21:11:55.417Z,35.20
2018-06-08T21:14:28.593Z,34.87
2018-06-08T21:17:06.117Z,35.93
2018-06-08T21:19:42.025Z,34.20
2018-06-08T21:22:15.682Z,31.83
2018-06-08T21:24:45.247Z,34.40
2018-06-08T21:27:15.132Z,34.30
2018-06-08T21:29:46.037Z,27.23
2018-06-08T21:32:15.543Z,30.60
2018-06-08T21:34:45.668Z,33.67
2018-06-08T21:37:16.083Z,35.07
2018-06-08T21:39:45.579Z,30.93
2018-06-08T21:42:16.682Z,34.27
2018-06-08T21:44:46.894Z,37.03
2018-06-08T21:47:16.514Z,34.27
2018-06-08T21:49:46.024Z,32.13
2018-06-08T21:52:15.784Z,32.90
2018-06-08T21:54:45.393Z,38.33
2018-06-08T21:57:15.938Z,33.10
2018-06-08T21:59:45.494Z,31.13
2018-06-08T22:02:15.271Z,32.83
2018-06-08T22:04:44.830Z,33.87
2018-06-08T22:07:15.011Z,33.30
2018-06-08T22:09:46.676Z,35.60
2018-06-08T22:12:19.269Z,35.30
2018-06-08T22:14:49.325Z,32.43
2018-06-08T22:17:19.062Z,37.20
2018-06-08T22:19:48.767Z,36.70
2018-06-08T22:22:20.969Z,39.63
2018-06-08T22:24:50.541Z,34.33
2018-06-08T22:27:21.016Z,35.20
2018-06-08T22:29:51.086Z,36.53
2018-06-08T22:32:22.198Z,43.57
2018-06-08T22:34:53.234Z,40.20
2018-06-08T22:37:22.823Z,42.97
2018-06-08T22:39:52.763Z,39.63
2018-06-08T22:42:23.587Z,36.30
2018-06-08T22:44:53.225Z,40.97
2018-06-08T22:47:22.695Z,33.80
2018-06-08T22:49:52.205Z,37.70
2018-06-08T22:52:21.730Z,39.57
2018-06-08T22:54:53.287Z,37.63
2018-06-08T22:57:22.366Z,41.20
2018-06-08T22:59:51.784Z,40.33
2018-06-08T23:02:22.173Z,43.07
2018-06-08T23:04:51.790Z,35.30
2018-06-08T23:07:21.290Z,37.20
2018-06-08T23:09:50.682Z,46.47
2018-06-08T23:12:21.745Z,45.25
2018-06-08T23:14:51.406Z,43.30
2018-06-08T23:17:21.447Z,35.93
2018-06-08T23:19:50.988Z,43.33
2018-06-08T23:22:20.658Z,42.13
2018-06-08T23:24:50.327Z,40.73
2018-06-08T23:27:21.600Z,41.95
2018-06-08T23:29:51.391Z,39.43
2018-06-08T23:32:21.062Z,45.27
2018-06-08T23:34:50.507Z,43.93
2018-06-08T23:37:20.116Z,46.17
2018-06-08T23:39:49.638Z,49.27
2018-06-08T23:42:19.204Z,46.70
2018-06-08T23:44:48.715Z,44.57
2018-06-08T23:47:18.980Z,52.07
2018-06-08T23:49:48.631Z,52.80
2018-06-08T23:52:18.041Z,43.70
2018-06-08T23:54:48.469Z,51.67
2018-06-08T23:57:19.542Z,45.60
2018-06-08T23:59:49.494Z,47.10
